Time;durP1;ratioP1;P1;durP2;ratioP2;P2;SDS_P1;SDS_P2;PMS_P1;PMS_P2;Temp;Humidity;BMP_temperature;BMP_pressure;BME280_temperature;BME280_humidity;BME280_pressure;Samples;Min_cycle;Max_cycle;Signal;HPM_P1;HPM_P2
2022/11/01 00:02:01;;;;;;;9.03;8.73;;;11.20;99.90;;;;;;5150408;27;20240;-84
2022/11/01 00:04:31;;;;;;;9.30;9.00;;;11.20;99.90;;;;;;5149883;27;20612;-84
2022/11/01 00:07:00;;;;;;;9.37;9.07;;;11.20;99.90;;;;;;5147291;27;20314;-84
2022/11/01 00:09:32;;;;;;;9.20;8.90;;;11.20;99.90;;;;;;5147908;27;20289;-84
2022/11/01 00:12:00;;;;;;;9.07;8.77;;;11.20;99.90;;;;;;5147021;27;20312;-85
2022/11/01 00:14:31;;;;;;;9.03;8.73;;;11.20;99.90;;;;;;5146447;27;20263;-84
2022/11/01 00:16:58;;;;;;;9.10;8.80;;;11.10;99.90;;;;;;5145490;27;20234;-84
2022/11/01 00:19:27;;;;;;;9.10;8.80;;;11.10;99.90;;;;;;5145278;27;20288;-84
2022/11/01 00:21:57;;;;;;;9.40;9.10;;;11.10;99.90;;;;;;5146527;27;20227;-84
2022/11/01 00:24:26;;;;;;;9.10;8.80;;;11.10;99.90;;;;;;5142477;27;20232;-84
2022/11/01 00:26:58;;;;;;;9.17;8.87;;;11.10;99.90;;;;;;5158382;27;20240;-85
2022/11/01 00:29:28;;;;;;;9.20;8.90;;;11.10;99.90;;;;;;5143447;27;20224;-84
2022/11/01 00:31:55;;;;;;;9.07;8.77;;;11.10;99.90;;;;;;5140825;27;20327;-84
2022/11/01 00:34:25;;;;;;;8.93;8.63;;;11.10;99.90;;;;;;5140889;27;20251;-84
2022/11/01 00:36:54;;;;;;;8.90;8.60;;;11.10;99.90;;;;;;5139874;27;20234;-84
2022/11/01 00:39:23;;;;;;;9.00;8.70;;;11.10;99.90;;;;;;5140668;27;20236;-84
2022/11/01 00:41:52;;;;;;;8.90;8.60;;;11.00;99.90;;;;;;5140621;27;20236;-84
2022/11/01 00:44:22;;;;;;;9.10;8.80;;;11.00;99.90;;;;;;5140877;27;20231;-84
2022/11/01 00:47:00;;;;;;;8.97;8.67;;;11.00;99.90;;;;;;5140569;27;20266;-84
2022/11/01 00:49:29;;;;;;;9.23;8.93;;;11.00;99.90;;;;;;5140496;27;20230;-84
2022/11/01 00:51:59;;;;;;;9.10;8.80;;;11.00;99.90;;;;;;5140493;27;20257;-84
2022/11/01 00:54:28;;;;;;;9.27;8.97;;;11.00;99.90;;;;;;5139947;27;20256;-84
2022/11/01 00:57:00;;;;;;;9.07;8.77;;;10.90;99.90;;;;;;5140148;27;20327;-83
2022/11/01 00:59:28;;;;;;;9.10;8.80;;;10.90;99.90;;;;;;5141411;27;20322;-84
2022/11/01 01:01:59;;;;;;;9.20;8.90;;;10.90;99.90;;;;;;5144221;27;20228;-84
2022/11/01 01:04:27;;;;;;;9.30;9.00;;;10.90;99.90;;;;;;5144602;27;20244;-85
2022/11/01 01:06:55;;;;;;;9.30;9.00;;;10.80;99.90;;;;;;5143728;27;20293;-84
2022/11/01 01:09:25;;;;;;;9.10;8.80;;;10.80;99.90;;;;;;5145194;27;20227;-84
2022/11/01 01:11:58;;;;;;;9.30;9.00;;;10.80;99.90;;;;;;5148450;27;20258;-84
2022/11/01 01:14:26;;;;;;;9.30;9.00;;;10.80;99.90;;;;;;5147638;27;20228;-83
2022/11/01 01:16:53;;;;;;;9.40;9.10;;;10.80;99.90;;;;;;5147168;27;20261;-84
2022/11/01 01:19:31;;;;;;;9.60;9.30;;;10.80;99.90;;;;;;5157678;27;20246;-84
2022/11/01 01:22:01;;;;;;;9.20;8.90;;;10.80;99.90;;;;;;5151955;27;20323;-84
2022/11/01 01:24:31;;;;;;;9.30;9.00;;;10.80;99.90;;;;;;5152121;27;20228;-84
2022/11/01 01:27:00;;;;;;;9.40;9.10;;;10.80;99.90;;;;;;5150895;27;20228;-85
2022/11/01 01:29:30;;;;;;;9.30;9.00;;;10.80;99.90;;;;;;5150043;27;20223;-83
2022/11/01 01:31:58;;;;;;;9.13;8.83;;;10.80;99.90;;;;;;5152825;27;20227;-84
2022/11/01 01:34:37;;;;;;;9.00;8.70;;;10.80;99.90;;;;;;5151750;27;20227;-85
2022/11/01 01:37:09;;;;;;;9.13;8.83;;;10.80;99.90;;;;;;5150731;27;20263;-84
2022/11/01 01:39:37;;;;;;;9.20;8.90;;;10.80;99.90;;;;;;5149543;27;20283;-84
2022/11/01 01:42:15;;;;;;;9.40;9.10;;;10.70;99.90;;;;;;5148581;27;20232;-84
2022/11/01 01:45:28;;;;;;;9.40;9.10;;;10.70;99.90;;;;;;5148859;27;20238;-85
2022/11/01 01:48:01;;;;;;;9.20;8.90;;;10.70;99.90;;;;;;5148287;27;20234;-85
2022/11/01 01:50:37;;;;;;;9.27;8.97;;;10.60;99.90;;;;;;5147543;27;20239;-85
2022/11/01 01:53:08;;;;;;;9.13;8.83;;;10.60;99.90;;;;;;5146973;27;20227;-85
2022/11/01 01:55:46;;;;;;;9.00;8.70;;;10.60;99.90;;;;;;5146524;27;20300;-84
2022/11/01 01:58:24;;;;;;;9.20;8.90;;;10.50;99.90;;;;;;5146918;27;20260;-85
2022/11/01 02:00:53;;;;;;;9.40;9.10;;;10.40;99.90;;;;;;5145964;27;20254;-84
2022/11/01 02:03:23;;;;;;;9.10;8.80;;;10.40;99.90;;;;;;5146620;27;20232;-84
2022/11/01 02:06:00;;;;;;;9.17;8.87;;;10.30;99.90;;;;;;5146882;27;20315;-85
2022/11/01 02:08:30;;;;;;;9.10;8.80;;;10.40;99.90;;;;;;5147238;27;20231;-85
2022/11/01 02:11:01;;;;;;;9.17;8.87;;;10.50;99.90;;;;;;5147949;27;20259;-85
2022/11/01 02:13:30;;;;;;;9.03;8.73;;;10.50;99.90;;;;;;5149036;27;20224;-85
2022/11/01 02:16:25;;;;;;;9.13;8.83;;;10.50;99.90;;;;;;5148058;27;20239;-85
2022/11/01 02:19:11;;;;;;;9.50;9.20;;;10.50;99.90;;;;;;5148153;27;20240;-85
2022/11/01 02:22:00;;;;;;;8.93;8.63;;;10.60;99.90;;;;;;5136638;27;20236;-85
2022/11/01 02:25:03;;;;;;;9.40;9.10;;;10.60;99.90;;;;;;5147177;27;20391;-84
2022/11/01 02:28:01;;;;;;;9.10;8.80;;;10.60;99.90;;;;;;5116166;27;20239;-84
2022/11/01 02:30:46;;;;;;;9.40;9.10;;;10.60;99.90;;;;;;5135480;27;20234;-85
2022/11/01 02:33:32;;;;;;;9.30;9.00;;;10.70;99.90;;;;;;5144620;27;20220;-85
2022/11/01 02:36:11;;;;;;;9.20;8.90;;;10.70;99.90;;;;;;5144638;27;20246;-85
2022/11/01 02:38:49;;;;;;;8.90;8.60;;;10.70;99.90;;;;;;5144580;27;20236;-85
2022/11/01 02:41:28;;;;;;;9.00;8.70;;;10.70;99.90;;;;;;5144380;27;20303;-85
2022/11/01 02:44:06;;;;;;;9.17;8.87;;;10.60;99.90;;;;;;5144496;27;20405;-84
2022/11/01 02:49:30;;;;;;;9.27;8.97;;;10.60;99.90;;;;;;5145498;27;20224;-85
2022/11/01 02:52:00;;;;;;;9.27;8.97;;;10.50;99.90;;;;;;5145211;27;20215;-85
2022/11/01 02:54:32;;;;;;;9.30;9.00;;;10.50;99.90;;;;;;5144645;27;20292;-84
2022/11/01 02:57:08;;;;;;;9.03;8.73;;;10.50;99.90;;;;;;5144301;27;20232;-84
2022/11/01 02:59:47;;;;;;;8.90;8.60;;;10.60;99.90;;;;;;5145199;27;20231;-85
2022/11/01 03:02:38;;;;;;;8.80;8.50;;;10.60;99.90;;;;;;5146121;27;20228;-85
2022/11/01 03:05:15;;;;;;;8.80;8.50;;;10.60;99.90;;;;;;5146974;27;20216;-84
2022/11/01 03:07:49;;;;;;;8.93;8.63;;;10.60;99.90;;;;;;5145979;27;20219;-84
2022/11/01 03:10:19;;;;;;;8.80;8.50;;;10.60;99.90;;;;;;5145621;27;20315;-83
2022/11/01 03:12:59;;;;;;;8.50;8.30;;;10.70;99.90;;;;;;5149002;27;20266;-84
2022/11/01 03:15:38;;;;;;;8.80;8.50;;;10.70;99.90;;;;;;5143445;27;21164;-84
2022/11/01 03:18:14;;;;;;;8.90;8.60;;;10.70;99.90;;;;;;5143705;27;20232;-84
2022/11/01 03:21:14;;;;;;;8.90;8.60;;;10.70;99.90;;;;;;5143532;27;20240;-84
2022/11/01 03:23:47;;;;;;;8.97;8.67;;;10.70;99.90;;;;;;5143060;27;20281;-84
2022/11/01 03:26:20;;;;;;;8.80;8.50;;;10.70;99.90;;;;;;5142734;27;20227;-84
2022/11/01 03:28:56;;;;;;;8.77;8.47;;;10.70;99.90;;;;;;5143122;27;20236;-84
2022/11/01 03:31:34;;;;;;;9.00;8.70;;;10.70;99.90;;;;;;5142771;27;20234;-84
2022/11/01 03:34:07;;;;;;;8.80;8.50;;;10.80;99.90;;;;;;5142987;27;20231;-84
2022/11/01 03:36:43;;;;;;;8.50;8.30;;;10.80;99.90;;;;;;5141874;27;20228;-84
2022/11/01 03:39:20;;;;;;;8.80;8.50;;;10.80;99.90;;;;;;5142770;27;20255;-84
2022/11/01 03:42:01;;;;;;;8.60;8.40;;;10.80;99.90;;;;;;5142343;27;20263;-84
2022/11/01 03:44:37;;;;;;;8.90;8.60;;;10.80;99.90;;;;;;5143166;27;20255;-86
2022/11/01 03:47:07;;;;;;;8.70;8.40;;;10.80;99.90;;;;;;5142512;27;20238;-84
2022/11/01 03:49:39;;;;;;;8.50;8.30;;;10.80;99.90;;;;;;5143145;27;20258;-84
2022/11/01 03:52:09;;;;;;;8.60;8.40;;;10.80;99.90;;;;;;5142315;27;20237;-84
2022/11/01 03:54:36;;;;;;;8.67;8.47;;;10.80;99.90;;;;;;5142881;27;20223;-84
2022/11/01 03:57:06;;;;;;;8.83;8.53;;;10.80;99.90;;;;;;5142860;27;20271;-83
2022/11/01 03:59:34;;;;;;;8.70;8.50;;;10.80;99.90;;;;;;5143203;27;20231;-84
2022/11/01 04:02:04;;;;;;;8.60;8.40;;;10.90;99.90;;;;;;5143087;27;20239;-83
2022/11/01 04:04:36;;;;;;;8.73;8.43;;;10.80;99.90;;;;;;5143263;27;20283;-84
2022/11/01 04:07:03;;;;;;;9.10;8.80;;;10.80;99.90;;;;;;5143608;27;20230;-84
2022/11/01 04:12:22;;;;;;;8.67;8.43;;;10.90;99.90;;;;;;5142866;27;20212;-83
2022/11/01 04:20:35;;;;;;;8.77;8.47;;;10.80;99.90;;;;;;5142684;27;20239;-84
2022/11/01 04:23:03;;;;;;;8.60;8.40;;;10.90;99.90;;;;;;5142596;27;20232;-84
2022/11/01 04:25:39;;;;;;;8.97;8.67;;;10.80;99.90;;;;;;5142244;27;20234;-84
2022/11/01 04:28:11;;;;;;;8.90;8.60;;;10.90;99.90;;;;;;5142726;27;20266;-83
2022/11/01 04:30:39;;;;;;;8.97;8.67;;;10.90;99.90;;;;;;5142824;27;20251;-84
2022/11/01 04:33:08;;;;;;;8.53;8.33;;;10.90;99.90;;;;;;5159181;27;20220;-85
2022/11/01 04:35:37;;;;;;;8.87;8.57;;;10.80;99.90;;;;;;5141955;27;21086;-84
2022/11/01 04:38:05;;;;;;;8.80;8.50;;;10.80;99.90;;;;;;5140738;27;20231;-84
2022/11/01 04:40:35;;;;;;;8.73;8.43;;;10.80;99.90;;;;;;5142072;27;20232;-84
2022/11/01 04:43:08;;;;;;;8.87;8.57;;;10.80;99.90;;;;;;5141571;27;20236;-84
2022/11/01 04:45:36;;;;;;;8.50;8.30;;;10.80;99.90;;;;;;5140848;27;20717;-84
2022/11/01 04:48:08;;;;;;;8.60;8.40;;;10.80;99.90;;;;;;5141767;27;20258;-84
2022/11/01 04:50:36;;;;;;;8.87;8.57;;;10.80;99.90;;;;;;5141584;27;20322;-84
2022/11/01 04:53:03;;;;;;;8.90;8.60;;;10.90;99.90;;;;;;5141851;27;20259;-84
2022/11/01 04:55:33;;;;;;;8.57;8.37;;;10.90;99.90;;;;;;5141224;27;20263;-84
2022/11/01 04:58:05;;;;;;;8.60;8.40;;;10.90;99.90;;;;;;5141727;27;20311;-84
2022/11/01 05:00:33;;;;;;;8.80;8.50;;;10.90;99.90;;;;;;5141943;27;20235;-84
2022/11/01 05:03:02;;;;;;;8.97;8.67;;;10.90;99.90;;;;;;5141644;27;20319;-84
2022/11/01 05:05:30;;;;;;;8.77;8.47;;;10.90;99.90;;;;;;5141736;27;20244;-84
2022/11/01 05:08:02;;;;;;;8.90;8.60;;;10.90;99.90;;;;;;5152631;27;20222;-84
2022/11/01 05:10:30;;;;;;;9.00;8.70;;;10.90;99.90;;;;;;5158649;27;20223;-83
2022/11/01 05:12:59;;;;;;;8.90;8.60;;;10.90;99.90;;;;;;5158897;27;20223;-84
2022/11/01 05:15:30;;;;;;;9.20;8.90;;;10.90;99.90;;;;;;5150627;27;20224;-85
2022/11/01 05:17:58;;;;;;;9.20;8.90;;;10.90;99.90;;;;;;5149013;27;20224;-84
2022/11/01 05:20:27;;;;;;;9.20;8.90;;;11.00;99.90;;;;;;5146347;27;20289;-84
2022/11/01 05:22:59;;;;;;;9.10;8.80;;;11.00;99.90;;;;;;5144542;27;20231;-84
2022/11/01 05:25:27;;;;;;;9.00;8.70;;;11.00;99.90;;;;;;5143779;27;20354;-84
2022/11/01 05:28:06;;;;;;;9.13;8.83;;;11.00;99.90;;;;;;5143995;27;20224;-83
2022/11/01 05:30:43;;;;;;;9.10;8.80;;;11.00;99.90;;;;;;5143594;27;20239;-84
2022/11/01 05:33:12;;;;;;;9.30;9.00;;;11.00;99.90;;;;;;5143901;27;20316;-84
2022/11/01 05:35:43;;;;;;;8.80;8.50;;;11.00;99.90;;;;;;5143017;27;20236;-84
2022/11/01 05:38:11;;;;;;;9.00;8.70;;;11.00;99.90;;;;;;5143249;27;20267;-84
2022/11/01 05:40:40;;;;;;;8.90;8.60;;;11.00;99.90;;;;;;5144195;27;20318;-84
2022/11/01 05:43:09;;;;;;;9.00;8.70;;;11.00;99.90;;;;;;5144386;27;20232;-84
2022/11/01 05:45:47;;;;;;;9.07;8.77;;;11.10;99.90;;;;;;5145070;27;20260;-84
2022/11/01 05:48:19;;;;;;;8.97;8.67;;;11.10;99.90;;;;;;5146620;27;20230;-84
2022/11/01 05:50:51;;;;;;;9.07;8.77;;;11.10;99.90;;;;;;5144672;27;20284;-84
2022/11/01 05:53:18;;;;;;;9.23;8.93;;;11.10;99.90;;;;;;5146752;27;20285;-84
2022/11/01 05:55:47;;;;;;;9.40;9.10;;;11.10;99.90;;;;;;5146452;27;20236;-84
2022/11/01 05:58:17;;;;;;;9.53;9.23;;;11.10;99.90;;;;;;5146995;27;20255;-84
2022/11/01 06:03:33;;;;;;;9.87;9.57;;;11.10;99.90;;;;;;5149673;27;20296;-84
2022/11/01 06:06:05;;;;;;;10.10;9.80;;;11.10;99.90;;;;;;5147114;27;20326;-84
2022/11/01 06:08:33;;;;;;;9.80;9.50;;;11.10;99.90;;;;;;5147078;27;20232;-84
2022/11/01 06:11:10;;;;;;;9.73;9.43;;;11.10;99.90;;;;;;5145196;27;20232;-84
2022/11/01 06:13:42;;;;;;;9.80;9.50;;;11.10;99.90;;;;;;5145811;27;20231;-84
2022/11/01 06:16:11;;;;;;;9.70;9.40;;;11.10;99.90;;;;;;5144560;27;20239;-84
2022/11/01 06:18:39;;;;;;;9.70;9.40;;;11.10;99.90;;;;;;5144595;27;20259;-84
2022/11/01 06:21:08;;;;;;;9.63;9.33;;;11.10;99.90;;;;;;5144554;27;20240;-84
2022/11/01 06:23:37;;;;;;;9.57;9.27;;;11.10;99.90;;;;;;5145989;27;20311;-84
2022/11/01 06:26:07;;;;;;;10.00;9.70;;;11.10;99.90;;;;;;5144643;27;20236;-84
2022/11/01 06:28:36;;;;;;;9.70;9.40;;;11.00;99.90;;;;;;5135387;27;20224;-85
2022/11/01 06:31:06;;;;;;;9.80;9.50;;;11.00;99.90;;;;;;5148520;27;20223;-85
2022/11/01 06:33:44;;;;;;;9.80;9.50;;;11.00;99.90;;;;;;5155880;27;20258;-84
2022/11/01 06:36:13;;;;;;;9.63;9.33;;;11.00;99.90;;;;;;5151642;27;20300;-84
2022/11/01 06:38:43;;;;;;;9.60;9.30;;;11.00;99.90;;;;;;5150615;27;20239;-85
2022/11/01 06:41:15;;;;;;;9.43;9.13;;;11.00;99.90;;;;;;5150279;27;20256;-84
2022/11/01 06:43:42;;;;;;;9.80;9.50;;;11.10;99.90;;;;;;5149738;27;20323;-85
2022/11/01 06:46:12;;;;;;;9.60;9.30;;;11.10;99.90;;;;;;5149255;27;20234;-84
2022/11/01 06:48:43;;;;;;;9.60;9.30;;;11.10;99.90;;;;;;5147923;27;20334;-85
2022/11/01 06:51:19;;;;;;;9.63;9.33;;;11.10;99.90;;;;;;5146806;27;20367;-84
2022/11/01 06:53:48;;;;;;;9.60;9.30;;;11.10;99.90;;;;;;5138508;27;20248;-82
2022/11/01 06:56:17;;;;;;;9.73;9.43;;;11.10;99.90;;;;;;5137353;27;20255;-83
2022/11/01 06:58:48;;;;;;;9.60;9.30;;;11.10;99.90;;;;;;5142144;27;20291;-82
2022/11/01 07:01:17;;;;;;;9.53;9.23;;;11.20;99.90;;;;;;5144544;27;20271;-82
2022/11/01 07:03:55;;;;;;;9.70;9.40;;;11.20;99.90;;;;;;5144745;27;20287;-82
2022/11/01 07:06:27;;;;;;;9.47;9.17;;;11.20;99.90;;;;;;5145047;27;20311;-82
2022/11/01 07:08:55;;;;;;;10.00;9.70;;;11.20;99.90;;;;;;5143105;27;20434;-84
2022/11/01 07:11:25;;;;;;;9.50;9.20;;;11.30;99.90;;;;;;5140087;27;20418;-83
2022/11/01 07:13:52;;;;;;;9.60;9.30;;;11.30;99.90;;;;;;5140746;27;20302;-84
2022/11/01 07:16:22;;;;;;;9.50;9.20;;;11.30;99.90;;;;;;5140812;27;20231;-82
2022/11/01 07:19:00;;;;;;;9.50;9.20;;;11.40;99.90;;;;;;5142689;27;20224;-82
2022/11/01 07:21:32;;;;;;;9.53;9.23;;;11.40;99.90;;;;;;5141698;27;20244;-81
2022/11/01 07:24:00;;;;;;;9.47;9.17;;;11.50;99.90;;;;;;5143139;27;20259;-82
2022/11/01 07:26:28;;;;;;;9.40;9.10;;;11.50;99.90;;;;;;5142049;27;20305;-82
2022/11/01 07:28:58;;;;;;;9.60;9.30;;;11.50;99.90;;;;;;5142122;27;20238;-82
2022/11/01 07:31:32;;;;;;;9.50;9.20;;;11.50;99.90;;;;;;5121016;27;20284;-82
2022/11/01 07:34:06;;;;;;;9.50;9.20;;;11.50;99.90;;;;;;5124368;27;20258;-82
2022/11/01 07:36:35;;;;;;;9.23;8.93;;;11.60;99.90;;;;;;5139853;27;20231;-82
2022/11/01 07:39:05;;;;;;;9.53;9.23;;;11.60;99.90;;;;;;5141130;27;20247;-82
2022/11/01 07:41:35;;;;;;;9.90;9.60;;;11.60;99.90;;;;;;5140713;27;20330;-82
2022/11/01 07:44:06;;;;;;;9.50;9.20;;;11.70;99.90;;;;;;5140172;27;20289;-83
2022/11/01 07:46:34;;;;;;;9.40;9.10;;;11.70;99.90;;;;;;5138854;27;20266;-83
2022/11/01 07:49:13;;;;;;;9.30;9.00;;;11.70;99.90;;;;;;5139453;27;20227;-84
2022/11/01 07:51:43;;;;;;;9.20;8.90;;;11.70;99.90;;;;;;5145522;27;20235;-83
2022/11/01 07:58:20;;;;;;;9.20;8.90;;;11.80;99.90;;;;;;5035227;28;20231;-83
2022/11/01 08:15:36;;;;;;;9.53;9.23;;;12.20;99.90;;;;;;4873580;29;21068;-83
2022/11/01 08:18:06;;;;;;;9.50;9.20;;;12.30;99.90;;;;;;4920824;29;21019;-83
2022/11/01 08:21:11;;;;;;;9.27;8.97;;;12.40;99.90;;;;;;4938458;29;20250;-83
2022/11/01 08:24:42;;;;;;;9.40;9.10;;;12.50;99.90;;;;;;5091599;28;20285;-83
2022/11/01 08:27:50;;;;;;;9.30;9.00;;;12.60;99.90;;;;;;5098410;28;20324;-83
2022/11/01 08:31:03;;;;;;;9.63;9.33;;;12.70;99.90;;;;;;5100295;28;20379;-82
2022/11/01 08:53:26;;;;;;;;;;;;;;;;;;;;;
2022/11/01 09:43:30;;;;;;;9.00;8.70;;;15.30;99.90;;;;;;5033448;28;20235;-85
2022/11/01 10:41:35;;;;;;;8.60;8.40;;;16.90;99.90;;;;;;1039957;25;20788;-84
2022/11/01 10:48:18;;;;;;;8.50;8.30;;;17.30;99.90;;;;;;5160252;27;20287;-84
2022/11/01 10:54:03;;;;;;;8.68;8.48;;;17.60;99.90;;;;;;5162083;27;20262;-84
2022/11/01 10:56:40;;;;;;;8.82;8.63;;;17.60;99.90;;;;;;5162292;27;20321;-82
2022/11/01 10:59:17;;;;;;;9.00;8.70;;;17.80;99.90;;;;;;5163391;27;20287;-83
2022/11/01 11:01:55;;;;;;;8.90;8.70;;;17.90;99.90;;;;;;5162455;27;20280;-83
2022/11/01 11:04:25;;;;;;;9.10;8.80;;;18.10;99.90;;;;;;5163278;27;20231;-82
2022/11/01 11:06:53;;;;;;;9.40;9.10;;;18.30;99.90;;;;;;5162241;27;20242;-82
2022/11/01 11:09:31;;;;;;;9.70;9.40;;;18.50;99.90;;;;;;5162504;27;20263;-83
2022/11/01 11:12:12;;;;;;;9.40;9.10;;;18.60;99.90;;;;;;5162203;27;20276;-82
2022/11/01 11:14:41;;;;;;;9.52;9.23;;;18.80;99.90;;;;;;5163082;27;20240;-81
2022/11/01 11:17:20;;;;;;;9.55;9.25;;;18.80;99.90;;;;;;5164784;27;20239;-82
2022/11/01 11:19:48;;;;;;;9.30;9.00;;;19.00;99.90;;;;;;5163771;27;20321;-82
2022/11/01 11:22:16;;;;;;;9.48;9.18;;;18.90;99.90;;;;;;5163263;27;20235;-84
2022/11/01 11:24:45;;;;;;;9.50;9.20;;;18.90;99.90;;;;;;5163523;27;20224;-84
2022/11/01 11:27:24;;;;;;;9.45;9.15;;;19.00;99.90;;;;;;5162042;27;20283;-84
2022/11/01 11:29:54;;;;;;;9.75;9.45;;;19.00;99.90;;;;;;5155567;27;20254;-83
2022/11/01 11:32:25;;;;;;;9.50;9.20;;;19.10;99.90;;;;;;5150558;27;20228;-83
2022/11/01 11:35:03;;;;;;;9.40;9.10;;;19.10;99.90;;;;;;5152964;27;20284;-84
2022/11/01 11:37:35;;;;;;;9.50;9.20;;;19.00;99.90;;;;;;5181990;22;20387;-84
2022/11/01 11:40:19;;;;;;;9.48;9.18;;;19.00;99.90;;;;;;5142364;27;20228;-83
2022/11/01 11:42:49;;;;;;;9.50;9.20;;;19.00;99.90;;;;;;5132092;27;20243;-82
2022/11/01 11:45:26;;;;;;;9.60;9.30;;;19.00;99.90;;;;;;5142187;27;20232;-85
2022/11/01 11:47:56;;;;;;;9.75;9.45;;;18.90;99.90;;;;;;5137068;27;20328;-86
2022/11/01 11:50:36;;;;;;;9.60;9.30;;;18.90;99.90;;;;;;5121603;28;20324;-85
2022/11/01 11:53:22;;;;;;;9.75;9.45;;;19.10;99.90;;;;;;5122883;28;20239;-84
2022/11/01 11:55:55;;;;;;;9.93;9.63;;;19.20;99.90;;;;;;5122542;28;20323;-83
2022/11/01 11:58:29;;;;;;;9.80;9.50;;;19.40;99.90;;;;;;5122812;27;20224;-83
2022/11/01 12:01:04;;;;;;;9.82;9.52;;;19.60;99.90;;;;;;5131708;28;20228;-83
2022/11/01 12:03:46;;;;;;;9.80;9.50;;;19.80;99.90;;;;;;5128047;28;20236;-84
2022/11/01 12:06:24;;;;;;;9.85;9.55;;;20.00;99.90;;;;;;5139459;27;20280;-80
2022/11/01 12:08:54;;;;;;;9.30;9.00;;;20.20;99.90;;;;;;5138978;27;20223;-84
2022/11/01 12:11:24;;;;;;;9.32;9.02;;;20.30;99.90;;;;;;5135201;28;20259;-83
2022/11/01 12:14:07;;;;;;;9.18;8.88;;;20.20;99.90;;;;;;5126482;28;20261;-83
2022/11/01 12:16:41;;;;;;;8.75;8.55;;;19.70;99.90;;;;;;5125453;28;20260;-83
2022/11/01 12:19:28;;;;;;;9.00;8.70;;;19.40;99.90;;;;;;5123876;28;20291;-83
2022/11/01 12:21:57;;;;;;;9.07;8.77;;;19.40;99.90;;;;;;5123670;28;20423;-85
2022/11/01 12:24:28;;;;;;;9.20;8.90;;;19.30;99.90;;;;;;5123889;28;20263;-83
2022/11/01 12:27:04;;;;;;;9.60;9.30;;;19.20;99.90;;;;;;5124815;28;20232;-83
2022/11/01 12:29:41;;;;;;;9.50;9.20;;;19.10;99.90;;;;;;5131505;27;20220;-83
2022/11/01 12:32:17;;;;;;;9.18;8.88;;;19.10;99.90;;;;;;5124254;28;20271;-83
2022/11/01 12:34:49;;;;;;;9.25;8.95;;;19.00;99.90;;;;;;5124016;28;20224;-83
2022/11/01 12:37:21;;;;;;;9.30;9.00;;;19.00;99.90;;;;;;5120635;28;20221;-82
2022/11/01 12:39:55;;;;;;;9.60;9.30;;;18.90;99.90;;;;;;5121655;28;20240;-82
2022/11/01 12:42:29;;;;;;;9.50;9.20;;;18.70;99.90;;;;;;5121284;28;20327;-82
2022/11/01 12:45:04;;;;;;;9.40;9.10;;;18.50;99.90;;;;;;5121094;28;20233;-82
2022/11/01 12:47:39;;;;;;;9.50;9.20;;;18.40;99.90;;;;;;5120221;28;20231;-81
2022/11/01 12:50:19;;;;;;;8.95;8.70;;;18.50;99.90;;;;;;5116552;28;20212;-82
2022/11/01 12:52:51;;;;;;;9.40;9.10;;;18.50;99.90;;;;;;5118128;28;20246;-82
2022/11/01 12:55:32;;;;;;;9.30;9.00;;;18.50;99.90;;;;;;5124670;27;20232;-82
2022/11/01 12:57:59;;;;;;;9.40;9.10;;;18.50;99.90;;;;;;5125257;28;20339;-83
2022/11/01 13:00:42;;;;;;;9.43;9.13;;;18.50;99.90;;;;;;5124632;28;20221;-81
2022/11/01 13:03:26;;;;;;;9.10;8.80;;;18.50;99.90;;;;;;5125005;28;20327;-82
2022/11/01 13:06:03;;;;;;;9.30;9.00;;;18.40;99.90;;;;;;5132548;28;20263;-82
2022/11/01 13:08:42;;;;;;;9.18;8.88;;;18.30;99.90;;;;;;5125641;28;20225;-83
2022/11/01 13:11:18;;;;;;;9.10;8.80;;;18.20;99.90;;;;;;5129106;28;20290;-82
2022/11/01 13:13:52;;;;;;;9.07;8.77;;;18.10;99.90;;;;;;5130386;28;20277;-82
2022/11/01 13:16:29;;;;;;;8.70;8.50;;;18.00;99.90;;;;;;5131123;28;20243;-82
2022/11/01 13:19:01;;;;;;;9.30;9.00;;;17.90;99.90;;;;;;5132234;28;20371;-83
2022/11/01 13:21:37;;;;;;;9.20;8.90;;;17.80;99.90;;;;;;5142095;27;20232;-82
2022/11/01 13:24:14;;;;;;;9.02;8.73;;;17.70;99.90;;;;;;5141212;27;20212;-83
2022/11/01 13:26:50;;;;;;;9.15;8.85;;;17.70;99.90;;;;;;5142146;27;20236;-82
2022/11/01 13:29:28;;;;;;;9.20;8.90;;;17.70;99.90;;;;;;5137588;28;20236;-84
2022/11/01 13:32:06;;;;;;;9.25;8.95;;;17.90;99.90;;;;;;5139947;28;20200;-82
2022/11/01 13:34:54;;;;;;;9.20;8.90;;;17.90;99.90;;;;;;5137712;28;20271;-82
2022/11/01 13:37:33;;;;;;;9.52;9.23;;;18.00;99.90;;;;;;5129457;28;20293;-83
2022/11/01 13:40:20;;;;;;;9.30;9.00;;;18.10;99.90;;;;;;5121805;28;20225;-83
2022/11/01 13:42:56;;;;;;;9.50;9.20;;;18.10;99.90;;;;;;5127661;28;20268;-83
2022/11/01 13:46:11;;;;;;;9.50;9.20;;;18.10;99.90;;;;;;5129140;28;20263;-83
2022/11/01 13:49:15;;;;;;;9.25;8.95;;;18.10;99.90;;;;;;5094965;28;20233;-82
2022/11/01 13:51:48;;;;;;;9.38;9.07;;;18.10;99.90;;;;;;5108294;28;20419;-80
2022/11/01 13:54:25;;;;;;;9.40;9.10;;;18.10;99.90;;;;;;5123118;28;20315;-80
2022/11/01 13:56:58;;;;;;;9.77;9.48;;;18.00;99.90;;;;;;5122540;28;20330;-83
2022/11/01 13:59:43;;;;;;;9.27;8.98;;;18.10;99.90;;;;;;5121216;28;20304;-80
2022/11/01 14:02:56;;;;;;;9.65;9.35;;;18.20;99.90;;;;;;5124173;28;20260;-82
2022/11/01 14:05:37;;;;;;;9.38;9.07;;;18.30;99.90;;;;;;5119952;28;20243;-79
2022/11/01 14:08:29;;;;;;;9.18;8.88;;;18.40;99.90;;;;;;5123573;28;21049;-80
2022/11/01 14:10:57;;;;;;;9.30;9.00;;;18.50;99.90;;;;;;5121893;28;20316;-80
2022/11/01 14:13:39;;;;;;;9.20;8.90;;;18.40;99.90;;;;;;5122795;28;20220;-79
2022/11/01 14:16:28;;;;;;;9.20;8.90;;;18.30;99.90;;;;;;5122529;28;20217;-80
2022/11/01 14:19:20;;;;;;;9.20;8.90;;;18.30;99.90;;;;;;5116404;28;20236;-81
2022/11/01 14:21:53;;;;;;;9.20;8.90;;;18.10;99.90;;;;;;5122744;28;20351;-81
2022/11/01 14:24:30;;;;;;;8.85;8.65;;;18.20;99.90;;;;;;5122868;28;20221;-80
2022/11/01 14:27:34;;;;;;;9.43;9.13;;;18.20;99.90;;;;;;5139335;27;20227;-80
2022/11/01 14:30:12;;;;;;;9.20;8.90;;;18.10;99.90;;;;;;5152294;27;20230;-80
2022/11/01 14:32:39;;;;;;;9.27;8.98;;;18.10;99.90;;;;;;5151992;27;20254;-80
2022/11/01 14:35:17;;;;;;;9.15;8.85;;;18.10;99.90;;;;;;5147764;27;20228;-80
2022/11/01 14:37:51;;;;;;;9.05;8.80;;;18.00;99.90;;;;;;5118962;28;20699;-80
2022/11/01 14:40:30;;;;;;;9.20;8.90;;;18.00;99.90;;;;;;5123300;28;20228;-80
2022/11/01 14:43:05;;;;;;;8.80;8.60;;;17.90;99.90;;;;;;5123691;28;20260;-81
2022/11/01 14:45:39;;;;;;;9.32;9.02;;;17.90;99.90;;;;;;5113918;28;20231;-81
2022/11/01 14:48:16;;;;;;;9.35;9.05;;;17.90;99.90;;;;;;5101604;28;20237;-80
2022/11/01 14:50:52;;;;;;;9.30;9.00;;;18.00;99.90;;;;;;5100676;28;20228;-79
2022/11/01 14:53:28;;;;;;;9.20;8.90;;;17.90;99.90;;;;;;5101735;28;20255;-83
2022/11/01 14:56:13;;;;;;;9.38;9.07;;;17.90;99.90;;;;;;5107029;28;20316;-81
2022/11/01 14:58:41;;;;;;;9.13;8.82;;;17.90;99.90;;;;;;5100999;28;20233;-79
2022/11/01 15:01:14;;;;;;;9.60;9.30;;;17.90;99.90;;;;;;5102667;28;20233;-84
2022/11/01 15:03:45;;;;;;;9.18;8.88;;;17.90;99.90;;;;;;5102118;28;20277;-80
2022/11/01 15:06:22;;;;;;;9.40;9.10;;;18.00;99.90;;;;;;5102261;28;20232;-80
2022/11/01 15:08:51;;;;;;;9.50;9.20;;;18.00;99.90;;;;;;5101073;28;20236;-81
2022/11/01 15:11:19;;;;;;;9.60;9.30;;;18.10;99.90;;;;;;5101613;28;20240;-82
2022/11/01 15:13:47;;;;;;;9.60;9.30;;;18.10;99.90;;;;;;5101859;28;20744;-81
2022/11/01 15:16:20;;;;;;;9.30;9.00;;;18.20;99.90;;;;;;5100981;28;20231;-81
2022/11/01 15:18:53;;;;;;;9.27;8.98;;;18.30;99.90;;;;;;5101713;28;20233;-81
2022/11/01 15:21:24;;;;;;;9.20;8.90;;;18.40;99.90;;;;;;5128702;27;20260;-81
2022/11/01 15:23:56;;;;;;;8.90;8.70;;;18.40;99.90;;;;;;5139238;27;20228;-82
2022/11/01 15:26:27;;;;;;;9.10;8.80;;;18.40;99.90;;;;;;5142740;27;20243;-81
2022/11/01 15:28:58;;;;;;;8.70;8.50;;;18.40;99.90;;;;;;5141199;27;20228;-80
2022/11/01 15:31:26;;;;;;;8.88;8.68;;;18.40;99.90;;;;;;5141303;27;20228;-81
2022/11/01 15:33:57;;;;;;;9.00;8.77;;;18.40;99.90;;;;;;5141934;27;20350;-81
2022/11/01 15:36:31;;;;;;;8.95;8.70;;;18.30;99.90;;;;;;5142073;27;20228;-81
2022/11/01 15:39:04;;;;;;;9.10;8.80;;;18.30;99.90;;;;;;5142045;27;20235;-80
2022/11/01 15:41:34;;;;;;;9.02;8.75;;;18.10;99.90;;;;;;5119730;27;20238;-82
2022/11/01 15:44:04;;;;;;;8.80;8.60;;;18.10;99.90;;;;;;5121067;28;20240;-83
2022/11/01 15:46:34;;;;;;;8.75;8.55;;;18.00;99.90;;;;;;5121714;28;20311;-83
2022/11/01 15:49:09;;;;;;;8.68;8.48;;;18.00;99.90;;;;;;5121043;28;20229;-83
2022/11/01 15:51:42;;;;;;;8.68;8.48;;;17.90;99.90;;;;;;5121834;28;20232;-84
2022/11/01 15:54:28;;;;;;;8.60;8.40;;;17.80;99.90;;;;;;5121400;28;20253;-82
2022/11/01 15:57:01;;;;;;;9.07;8.80;;;17.70;99.90;;;;;;5122474;28;20247;-82
2022/11/01 15:59:36;;;;;;;8.57;8.38;;;17.60;99.90;;;;;;5122529;28;20255;-82
2022/11/01 16:02:13;;;;;;;8.55;8.35;;;17.50;99.90;;;;;;5121204;28;20280;-82
2022/11/01 16:04:51;;;;;;;8.43;8.23;;;17.30;99.90;;;;;;5123402;28;20232;-83
2022/11/01 16:07:21;;;;;;;8.25;8.05;;;17.20;99.90;;;;;;5121650;28;20231;-81
2022/11/01 16:09:55;;;;;;;8.27;8.07;;;17.10;99.90;;;;;;5119691;28;20228;-81